sensor_id;sensor_type;location;lat;lon;timestamp;P1;durP1;ratioP1;P2;durP2;ratioP2
11865;SDS011;5992;52.744;6.898;2024-03-02T00:00:57;2.10;;;1.90;;
11865;SDS011;5992;52.744;6.898;2024-03-02T00:04:09;2.20;;;2.00;;
11865;SDS011;5992;52.744;6.898;2024-03-02T00:07:21;2.00;;;1.87;;
11865;SDS011;5992;52.744;6.898;2024-03-02T00:10:36;2.23;;;2.03;;
11865;SDS011;5992;52.744;6.898;2024-03-02T00:13:48;2.10;;;1.90;;
11865;SDS011;5992;52.744;6.898;2024-03-02T00:17:21;2.10;;;1.95;;
11865;SDS011;5992;52.744;6.898;2024-03-02T00:20:27;3.37;;;2.80;;
11865;SDS011;5992;52.744;6.898;2024-03-02T00:23:56;2.33;;;2.00;;
11865;SDS011;5992;52.744;6.898;2024-03-02T00:27:08;2.50;;;2.30;;
11865;SDS011;5992;52.744;6.898;2024-03-02T00:30:40;2.40;;;2.13;;
11865;SDS011;5992;52.744;6.898;2024-03-02T00:33:50;4.07;;;2.37;;
11865;SDS011;5992;52.744;6.898;2024-03-02T00:37:02;2.43;;;2.23;;
11865;SDS011;5992;52.744;6.898;2024-03-02T00:40:02;2.20;;;1.97;;
11865;SDS011;5992;52.744;6.898;2024-03-02T00:46:57;3.33;;;2.23;;
11865;SDS011;5992;52.744;6.898;2024-03-02T01:11:02;3.17;;;2.37;;
11865;SDS011;5992;52.744;6.898;2024-03-02T01:14:14;3.03;;;2.73;;
11865;SDS011;5992;52.744;6.898;2024-03-02T01:17:28;2.50;;;2.30;;
11865;SDS011;5992;52.744;6.898;2024-03-02T01:20:28;4.63;;;2.03;;
11865;SDS011;5992;52.744;6.898;2024-03-02T01:23:52;2.13;;;2.03;;
11865;SDS011;5992;52.744;6.898;2024-03-02T01:26:54;3.50;;;2.30;;
11865;SDS011;5992;52.744;6.898;2024-03-02T01:30:18;2.87;;;2.57;;
11865;SDS011;5992;52.744;6.898;2024-03-02T01:33:19;4.77;;;2.30;;
11865;SDS011;5992;52.744;6.898;2024-03-02T01:36:44;2.80;;;2.60;;
11865;SDS011;5992;52.744;6.898;2024-03-02T01:39:44;2.23;;;2.03;;
11865;SDS011;5992;52.744;6.898;2024-03-02T01:42:59;2.30;;;2.10;;
11865;SDS011;5992;52.744;6.898;2024-03-02T01:46:11;3.20;;;2.43;;
11865;SDS011;5992;52.744;6.898;2024-03-02T01:49:24;2.23;;;2.00;;
11865;SDS011;5992;52.744;6.898;2024-03-02T01:52:24;3.97;;;2.63;;
11865;SDS011;5992;52.744;6.898;2024-03-02T01:55:36;2.40;;;2.20;;
11865;SDS011;5992;52.744;6.898;2024-03-02T01:58:50;2.60;;;2.40;;
11865;SDS011;5992;52.744;6.898;2024-03-02T02:02:02;3.40;;;2.45;;
11865;SDS011;5992;52.744;6.898;2024-03-02T02:05:27;3.00;;;2.30;;
11865;SDS011;5992;52.744;6.898;2024-03-02T02:08:38;2.23;;;2.10;;
11865;SDS011;5992;52.744;6.898;2024-03-02T02:11:50;2.17;;;1.90;;
11865;SDS011;5992;52.744;6.898;2024-03-02T02:15:04;2.55;;;2.35;;
11865;SDS011;5992;52.744;6.898;2024-03-02T02:18:28;2.90;;;1.90;;
11865;SDS011;5992;52.744;6.898;2024-03-02T02:21:31;2.00;;;1.90;;
11865;SDS011;5992;52.744;6.898;2024-03-02T02:24:55;2.43;;;2.23;;
11865;SDS011;5992;52.744;6.898;2024-03-02T02:27:55;2.20;;;2.10;;
11865;SDS011;5992;52.744;6.898;2024-03-02T02:31:22;2.43;;;2.10;;
11865;SDS011;5992;52.744;6.898;2024-03-02T02:34:22;2.85;;;2.30;;
11865;SDS011;5992;52.744;6.898;2024-03-02T02:37:36;2.77;;;2.27;;
11865;SDS011;5992;52.744;6.898;2024-03-02T02:40:48;2.10;;;1.97;;
11865;SDS011;5992;52.744;6.898;2024-03-02T02:44:00;1.67;;;1.57;;
11865;SDS011;5992;52.744;6.898;2024-03-02T02:47:00;2.30;;;2.10;;
11865;SDS011;5992;52.744;6.898;2024-03-02T02:50:12;2.60;;;2.17;;
11865;SDS011;5992;52.744;6.898;2024-03-02T02:53:26;5.03;;;2.53;;
11865;SDS011;5992;52.744;6.898;2024-03-02T02:56:51;2.00;;;1.90;;
11865;SDS011;5992;52.744;6.898;2024-03-02T02:59:51;2.85;;;2.25;;
11865;SDS011;5992;52.744;6.898;2024-03-02T03:03:04;2.60;;;2.40;;
11865;SDS011;5992;52.744;6.898;2024-03-02T03:06:04;2.10;;;1.90;;
11865;SDS011;5992;52.744;6.898;2024-03-02T03:09:18;2.30;;;2.10;;
11865;SDS011;5992;52.744;6.898;2024-03-02T03:12:30;2.87;;;2.13;;
11865;SDS011;5992;52.744;6.898;2024-03-02T03:15:44;1.95;;;1.70;;
11865;SDS011;5992;52.744;6.898;2024-03-02T03:18:44;1.53;;;1.43;;
11865;SDS011;5992;52.744;6.898;2024-03-02T03:21:56;1.80;;;1.70;;
11865;SDS011;5992;52.744;6.898;2024-03-02T03:24:58;1.83;;;1.73;;
11865;SDS011;5992;52.744;6.898;2024-03-02T03:28:23;2.20;;;2.00;;
11865;SDS011;5992;52.744;6.898;2024-03-02T03:31:24;2.25;;;2.05;;
11865;SDS011;5992;52.744;6.898;2024-03-02T03:34:36;2.60;;;1.83;;
11865;SDS011;5992;52.744;6.898;2024-03-02T03:37:37;1.87;;;1.77;;
11865;SDS011;5992;52.744;6.898;2024-03-02T03:40:50;2.43;;;2.20;;
11865;SDS011;5992;52.744;6.898;2024-03-02T03:44:03;1.80;;;1.70;;
11865;SDS011;5992;52.744;6.898;2024-03-02T03:47:27;1.90;;;1.80;;
11865;SDS011;5992;52.744;6.898;2024-03-02T03:50:27;2.43;;;1.80;;
11865;SDS011;5992;52.744;6.898;2024-03-02T03:53:40;2.23;;;2.00;;
11865;SDS011;5992;52.744;6.898;2024-03-02T03:56:41;1.73;;;1.50;;
11865;SDS011;5992;52.744;6.898;2024-03-02T04:00:06;2.70;;;2.35;;
11865;SDS011;5992;52.744;6.898;2024-03-02T04:03:19;2.30;;;2.10;;
11865;SDS011;5992;52.744;6.898;2024-03-02T04:06:19;1.80;;;1.70;;
11865;SDS011;5992;52.744;6.898;2024-03-02T04:09:31;3.33;;;2.30;;
11865;SDS011;5992;52.744;6.898;2024-03-02T04:12:32;2.07;;;1.97;;
11865;SDS011;5992;52.744;6.898;2024-03-02T04:15:57;1.67;;;1.57;;
11865;SDS011;5992;52.744;6.898;2024-03-02T04:18:57;2.80;;;1.90;;
11865;SDS011;5992;52.744;6.898;2024-03-02T04:22:24;2.00;;;1.70;;
11865;SDS011;5992;52.744;6.898;2024-03-02T04:25:24;2.75;;;2.00;;
11865;SDS011;5992;52.744;6.898;2024-03-02T04:28:37;2.20;;;2.00;;
11865;SDS011;5992;52.744;6.898;2024-03-02T04:31:50;1.80;;;1.70;;
11865;SDS011;5992;52.744;6.898;2024-03-02T04:35:03;1.40;;;1.30;;
11865;SDS011;5992;52.744;6.898;2024-03-02T04:38:04;2.10;;;1.75;;
11865;SDS011;5992;52.744;6.898;2024-03-02T04:41:17;1.60;;;1.50;;
11865;SDS011;5992;52.744;6.898;2024-03-02T04:44:18;3.00;;;1.90;;
11865;SDS011;5992;52.744;6.898;2024-03-02T04:47:44;2.27;;;1.93;;
11865;SDS011;5992;52.744;6.898;2024-03-02T04:50:56;2.50;;;1.70;;
11865;SDS011;5992;52.744;6.898;2024-03-02T04:54:08;2.40;;;2.20;;
11865;SDS011;5992;52.744;6.898;2024-03-02T04:57:08;2.10;;;1.90;;
11865;SDS011;5992;52.744;6.898;2024-03-02T05:00:21;3.30;;;2.13;;
11865;SDS011;5992;52.744;6.898;2024-03-02T05:03:34;2.57;;;2.27;;
11865;SDS011;5992;52.744;6.898;2024-03-02T05:06:47;2.53;;;1.90;;
11865;SDS011;5992;52.744;6.898;2024-03-02T05:09:48;4.27;;;2.30;;
11865;SDS011;5992;52.744;6.898;2024-03-02T05:13:01;2.70;;;2.30;;
11865;SDS011;5992;52.744;6.898;2024-03-02T05:16:02;2.90;;;2.00;;
11865;SDS011;5992;52.744;6.898;2024-03-02T05:19:28;3.23;;;2.10;;
11865;SDS011;5992;52.744;6.898;2024-03-02T05:22:28;2.10;;;1.90;;
11865;SDS011;5992;52.744;6.898;2024-03-02T05:25:42;2.45;;;2.25;;
11865;SDS011;5992;52.744;6.898;2024-03-02T05:28:42;2.17;;;1.97;;
11865;SDS011;5992;52.744;6.898;2024-03-02T05:31:56;2.00;;;1.90;;
11865;SDS011;5992;52.744;6.898;2024-03-02T05:35:09;4.60;;;1.93;;
11865;SDS011;5992;52.744;6.898;2024-03-02T05:38:21;2.60;;;2.30;;
11865;SDS011;5992;52.744;6.898;2024-03-02T05:41:22;6.33;;;2.90;;
11865;SDS011;5992;52.744;6.898;2024-03-02T05:44:35;2.43;;;2.23;;
11865;SDS011;5992;52.744;6.898;2024-03-02T05:47:36;2.10;;;1.87;;
11865;SDS011;5992;52.744;6.898;2024-03-02T05:51:01;2.93;;;2.20;;
11865;SDS011;5992;52.744;6.898;2024-03-02T05:54:02;1.77;;;1.67;;
11865;SDS011;5992;52.744;6.898;2024-03-02T05:57:27;2.13;;;2.00;;
11865;SDS011;5992;52.744;6.898;2024-03-02T06:00:32;2.30;;;2.20;;
11865;SDS011;5992;52.744;6.898;2024-03-02T06:03:57;3.60;;;2.17;;
11865;SDS011;5992;52.744;6.898;2024-03-02T06:07:09;2.60;;;2.07;;
11865;SDS011;5992;52.744;6.898;2024-03-02T06:10:21;2.43;;;1.90;;
11865;SDS011;5992;52.744;6.898;2024-03-02T06:13:21;2.45;;;2.35;;
11865;SDS011;5992;52.744;6.898;2024-03-02T06:16:33;3.90;;;2.60;;
11865;SDS011;5992;52.744;6.898;2024-03-02T06:19:46;1.95;;;1.85;;
11865;SDS011;5992;52.744;6.898;2024-03-02T06:23:12;2.65;;;2.05;;
11865;SDS011;5992;52.744;6.898;2024-03-02T06:26:12;3.25;;;2.95;;
11865;SDS011;5992;52.744;6.898;2024-03-02T06:29:24;2.07;;;1.87;;
11865;SDS011;5992;52.744;6.898;2024-03-02T06:32:25;4.20;;;2.15;;
11865;SDS011;5992;52.744;6.898;2024-03-02T06:35:38;2.47;;;2.27;;
11865;SDS011;5992;52.744;6.898;2024-03-02T06:38:51;2.40;;;2.20;;
11865;SDS011;5992;52.744;6.898;2024-03-02T06:42:03;2.15;;;1.95;;
11865;SDS011;5992;52.744;6.898;2024-03-02T06:45:04;2.45;;;2.25;;
11865;SDS011;5992;52.744;6.898;2024-03-02T06:48:17;3.60;;;2.45;;
11865;SDS011;5992;52.744;6.898;2024-03-02T06:51:31;2.07;;;1.93;;
11865;SDS011;5992;52.744;6.898;2024-03-02T06:55:16;2.83;;;2.23;;
11865;SDS011;5992;52.744;6.898;2024-03-02T06:58:16;2.80;;;2.00;;
11865;SDS011;5992;52.744;6.898;2024-03-02T07:01:28;2.27;;;2.13;;
11865;SDS011;5992;52.744;6.898;2024-03-02T07:04:28;2.23;;;2.03;;
11865;SDS011;5992;52.744;6.898;2024-03-02T07:07:43;2.00;;;1.90;;
11865;SDS011;5992;52.744;6.898;2024-03-02T07:10:55;2.15;;;2.00;;
11865;SDS011;5992;52.744;6.898;2024-03-02T07:14:09;2.20;;;2.00;;
11865;SDS011;5992;52.744;6.898;2024-03-02T07:17:09;2.40;;;2.20;;
11865;SDS011;5992;52.744;6.898;2024-03-02T07:20:20;1.80;;;1.70;;
11865;SDS011;5992;52.744;6.898;2024-03-02T07:23:22;3.93;;;2.63;;
11865;SDS011;5992;52.744;6.898;2024-03-02T07:26:46;2.60;;;2.40;;
11865;SDS011;5992;52.744;6.898;2024-03-02T07:29:46;3.10;;;2.33;;
11865;SDS011;5992;52.744;6.898;2024-03-02T07:32:58;2.65;;;2.30;;
11865;SDS011;5992;52.744;6.898;2024-03-02T07:35:59;2.10;;;2.00;;
11865;SDS011;5992;52.744;6.898;2024-03-02T07:39:24;3.00;;;2.67;;
11865;SDS011;5992;52.744;6.898;2024-03-02T07:42:37;2.90;;;2.40;;
11865;SDS011;5992;52.744;6.898;2024-03-02T07:46:01;3.77;;;3.10;;
11865;SDS011;5992;52.744;6.898;2024-03-02T07:49:03;3.47;;;2.60;;
11865;SDS011;5992;52.744;6.898;2024-03-02T07:52:15;2.70;;;2.20;;
11865;SDS011;5992;52.744;6.898;2024-03-02T07:55:17;2.00;;;1.90;;
11865;SDS011;5992;52.744;6.898;2024-03-02T07:58:40;2.85;;;2.40;;
11865;SDS011;5992;52.744;6.898;2024-03-02T08:01:40;2.25;;;2.05;;
11865;SDS011;5992;52.744;6.898;2024-03-02T08:05:04;2.65;;;2.20;;
11865;SDS011;5992;52.744;6.898;2024-03-02T08:08:04;2.70;;;2.50;;
11865;SDS011;5992;52.744;6.898;2024-03-02T08:11:31;3.37;;;2.10;;
11865;SDS011;5992;52.744;6.898;2024-03-02T08:14:43;2.23;;;2.00;;
11865;SDS011;5992;52.744;6.898;2024-03-02T08:17:55;3.05;;;2.60;;
11865;SDS011;5992;52.744;6.898;2024-03-02T08:21:07;2.30;;;2.10;;
11865;SDS011;5992;52.744;6.898;2024-03-02T08:24:19;2.10;;;1.95;;
11865;SDS011;5992;52.744;6.898;2024-03-02T08:27:21;2.47;;;1.93;;
11865;SDS011;5992;52.744;6.898;2024-03-02T08:30:46;2.67;;;2.47;;
11865;SDS011;5992;52.744;6.898;2024-03-02T08:33:50;2.50;;;2.30;;
11865;SDS011;5992;52.744;6.898;2024-03-02T08:37:03;2.87;;;2.60;;
11865;SDS011;5992;52.744;6.898;2024-03-02T08:40:04;2.70;;;2.50;;
11865;SDS011;5992;52.744;6.898;2024-03-02T08:43:18;4.37;;;2.40;;
11865;SDS011;5992;52.744;6.898;2024-03-02T08:46:30;2.53;;;2.27;;
11865;SDS011;5992;52.744;6.898;2024-03-02T08:49:43;2.70;;;1.83;;
11865;SDS011;5992;52.744;6.898;2024-03-02T08:52:43;2.30;;;2.10;;
11865;SDS011;5992;52.744;6.898;2024-03-02T08:55:58;3.27;;;2.47;;
11865;SDS011;5992;52.744;6.898;2024-03-02T08:59:12;2.70;;;2.50;;
11865;SDS011;5992;52.744;6.898;2024-03-02T09:02:39;4.83;;;2.43;;
11865;SDS011;5992;52.744;6.898;2024-03-02T09:05:38;3.25;;;2.30;;
11865;SDS011;5992;52.744;6.898;2024-03-02T09:08:52;3.67;;;2.83;;
11865;SDS011;5992;52.744;6.898;2024-03-02T09:11:52;3.13;;;2.20;;
11865;SDS011;5992;52.744;6.898;2024-03-02T09:15:06;2.73;;;2.53;;
11865;SDS011;5992;52.744;6.898;2024-03-02T09:18:19;2.40;;;2.20;;
11865;SDS011;5992;52.744;6.898;2024-03-02T09:21:32;2.77;;;2.37;;
11865;SDS011;5992;52.744;6.898;2024-03-02T09:40:27;1.80;;;1.70;;
11865;SDS011;5992;52.744;6.898;2024-03-02T09:43:40;2.97;;;2.17;;
11865;SDS011;5992;52.744;6.898;2024-03-02T09:47:04;2.40;;;2.20;;
11865;SDS011;5992;52.744;6.898;2024-03-02T09:50:05;2.10;;;1.90;;
11865;SDS011;5992;52.744;6.898;2024-03-02T09:53:18;2.45;;;2.05;;
11865;SDS011;5992;52.744;6.898;2024-03-02T09:56:20;1.75;;;1.65;;
11865;SDS011;5992;52.744;6.898;2024-03-02T09:59:43;4.30;;;1.80;;
11865;SDS011;5992;52.744;6.898;2024-03-02T10:02:56;2.07;;;1.97;;
11865;SDS011;5992;52.744;6.898;2024-03-02T10:05:56;1.87;;;1.77;;
11865;SDS011;5992;52.744;6.898;2024-03-02T10:09:08;2.20;;;2.00;;
11865;SDS011;5992;52.744;6.898;2024-03-02T10:12:10;2.03;;;1.83;;
11865;SDS011;5992;52.744;6.898;2024-03-02T10:15:34;2.40;;;2.20;;
11865;SDS011;5992;52.744;6.898;2024-03-02T10:18:37;2.00;;;1.90;;
11865;SDS011;5992;52.744;6.898;2024-03-02T10:21:50;3.80;;;2.13;;
11865;SDS011;5992;52.744;6.898;2024-03-02T10:25:02;2.43;;;2.17;;
11865;SDS011;5992;52.744;6.898;2024-03-02T10:28:16;2.87;;;1.77;;
11865;SDS011;5992;52.744;6.898;2024-03-02T10:31:29;2.33;;;1.70;;
11865;SDS011;5992;52.744;6.898;2024-03-02T10:34:53;1.67;;;1.57;;
11865;SDS011;5992;52.744;6.898;2024-03-02T10:38:05;1.93;;;1.80;;
11865;SDS011;5992;52.744;6.898;2024-03-02T10:41:19;1.73;;;1.40;;
11865;SDS011;5992;52.744;6.898;2024-03-02T10:44:33;4.20;;;2.03;;
11865;SDS011;5992;52.744;6.898;2024-03-02T10:47:57;2.03;;;1.93;;
11865;SDS011;5992;52.744;6.898;2024-03-02T10:51:12;3.30;;;2.10;;
11865;SDS011;5992;52.744;6.898;2024-03-02T10:54:39;2.30;;;1.95;;
11865;SDS011;5992;52.744;6.898;2024-03-02T10:57:42;2.30;;;1.90;;
11865;SDS011;5992;52.744;6.898;2024-03-02T11:01:07;1.97;;;1.87;;
11865;SDS011;5992;52.744;6.898;2024-03-02T11:04:20;2.73;;;2.37;;
11865;SDS011;5992;52.744;6.898;2024-03-02T11:07:44;3.10;;;1.80;;
11865;SDS011;5992;52.744;6.898;2024-03-02T11:10:57;2.33;;;2.07;;
11865;SDS011;5992;52.744;6.898;2024-03-02T11:14:21;2.10;;;1.90;;
11865;SDS011;5992;52.744;6.898;2024-03-02T11:17:34;4.80;;;2.40;;
11865;SDS011;5992;52.744;6.898;2024-03-02T11:20:58;6.53;;;2.10;;
11865;SDS011;5992;52.744;6.898;2024-03-02T11:28:00;2.10;;;2.00;;
11865;SDS011;5992;52.744;6.898;2024-03-02T11:31:11;1.90;;;1.80;;
11865;SDS011;5992;52.744;6.898;2024-03-02T11:34:36;1.90;;;1.80;;
11865;SDS011;5992;52.744;6.898;2024-03-02T11:37:49;2.17;;;1.87;;
11865;SDS011;5992;52.744;6.898;2024-03-02T11:41:13;1.90;;;1.70;;
11865;SDS011;5992;52.744;6.898;2024-03-02T11:44:25;2.80;;;1.97;;
11865;SDS011;5992;52.744;6.898;2024-03-02T11:47:49;3.57;;;2.00;;
11865;SDS011;5992;52.744;6.898;2024-03-02T11:51:03;1.93;;;1.53;;
11865;SDS011;5992;52.744;6.898;2024-03-02T11:54:27;3.53;;;1.53;;
11865;SDS011;5992;52.744;6.898;2024-03-02T11:57:39;1.70;;;1.60;;
11865;SDS011;5992;52.744;6.898;2024-03-02T12:01:03;2.47;;;1.80;;
11865;SDS011;5992;52.744;6.898;2024-03-02T12:04:16;2.73;;;1.60;;
11865;SDS011;5992;52.744;6.898;2024-03-02T12:07:30;1.60;;;1.53;;
11865;SDS011;5992;52.744;6.898;2024-03-02T12:10:58;3.20;;;2.05;;
11865;SDS011;5992;52.744;6.898;2024-03-02T12:14:10;2.60;;;1.67;;
11865;SDS011;5992;52.744;6.898;2024-03-02T12:17:35;2.50;;;1.80;;
11865;SDS011;5992;52.744;6.898;2024-03-02T12:20:36;2.30;;;1.60;;
11865;SDS011;5992;52.744;6.898;2024-03-02T12:23:52;2.50;;;1.57;;
11865;SDS011;5992;52.744;6.898;2024-03-02T12:27:04;2.17;;;1.60;;
11865;SDS011;5992;52.744;6.898;2024-03-02T12:30:29;1.50;;;1.40;;
11865;SDS011;5992;52.744;6.898;2024-03-02T12:33:40;1.90;;;1.80;;
11865;SDS011;5992;52.744;6.898;2024-03-02T12:37:05;1.70;;;1.60;;
11865;SDS011;5992;52.744;6.898;2024-03-02T12:40:09;2.30;;;1.60;;
11865;SDS011;5992;52.744;6.898;2024-03-02T12:43:32;2.23;;;1.60;;
11865;SDS011;5992;52.744;6.898;2024-03-02T12:46:33;1.53;;;1.43;;
11865;SDS011;5992;52.744;6.898;2024-03-02T12:49:57;2.00;;;1.50;;
11865;SDS011;5992;52.744;6.898;2024-03-02T12:53:13;2.15;;;1.50;;
11865;SDS011;5992;52.744;6.898;2024-03-02T12:56:40;1.40;;;1.30;;
11865;SDS011;5992;52.744;6.898;2024-03-02T12:59:51;1.50;;;1.40;;
11865;SDS011;5992;52.744;6.898;2024-03-02T13:03:18;3.87;;;1.27;;
11865;SDS011;5992;52.744;6.898;2024-03-02T13:07:00;1.53;;;1.30;;
11865;SDS011;5992;52.744;6.898;2024-03-02T13:09:55;4.77;;;1.13;;
11865;SDS011;5992;52.744;6.898;2024-03-02T13:13:09;1.27;;;1.27;;
11865;SDS011;5992;52.744;6.898;2024-03-02T13:16:38;1.37;;;1.13;;
11865;SDS011;5992;52.744;6.898;2024-03-02T13:19:52;1.57;;;1.47;;
11865;SDS011;5992;52.744;6.898;2024-03-02T13:23:18;1.27;;;1.17;;
11865;SDS011;5992;52.744;6.898;2024-03-02T13:26:19;2.50;;;1.40;;
11865;SDS011;5992;52.744;6.898;2024-03-02T13:29:46;1.67;;;1.10;;
11865;SDS011;5992;52.744;6.898;2024-03-02T13:32:58;3.50;;;1.30;;
11865;SDS011;5992;52.744;6.898;2024-03-02T13:36:11;2.50;;;1.37;;
11865;SDS011;5992;52.744;6.898;2024-03-02T13:39:12;1.60;;;1.30;;
11865;SDS011;5992;52.744;6.898;2024-03-02T13:42:25;2.00;;;1.30;;
11865;SDS011;5992;52.744;6.898;2024-03-02T13:45:40;1.40;;;1.30;;
11865;SDS011;5992;52.744;6.898;2024-03-02T13:49:04;2.47;;;1.07;;
11865;SDS011;5992;52.744;6.898;2024-03-02T13:52:05;1.60;;;1.50;;
11865;SDS011;5992;52.744;6.898;2024-03-02T13:55:28;1.83;;;1.20;;
11865;SDS011;5992;52.744;6.898;2024-03-02T13:58:29;1.85;;;1.60;;
11865;SDS011;5992;52.744;6.898;2024-03-02T14:01:44;1.67;;;1.57;;
11865;SDS011;5992;52.744;6.898;2024-03-02T14:05:08;1.60;;;1.50;;
11865;SDS011;5992;52.744;6.898;2024-03-02T14:08:21;1.60;;;1.50;;
11865;SDS011;5992;52.744;6.898;2024-03-02T14:11:33;1.47;;;1.37;;
11865;SDS011;5992;52.744;6.898;2024-03-02T14:14:46;1.20;;;1.10;;
11865;SDS011;5992;52.744;6.898;2024-03-02T14:18:01;1.60;;;1.50;;
11865;SDS011;5992;52.744;6.898;2024-03-02T14:21:13;2.40;;;1.37;;
11865;SDS011;5992;52.744;6.898;2024-03-02T14:24:27;1.40;;;1.30;;
11865;SDS011;5992;52.744;6.898;2024-03-02T14:27:27;1.67;;;1.57;;
11865;SDS011;5992;52.744;6.898;2024-03-02T14:30:41;1.70;;;1.60;;
11865;SDS011;5992;52.744;6.898;2024-03-02T14:33:43;1.80;;;1.70;;
11865;SDS011;5992;52.744;6.898;2024-03-02T14:37:08;1.87;;;1.77;;
11865;SDS011;5992;52.744;6.898;2024-03-02T14:40:09;2.77;;;1.70;;
11865;SDS011;5992;52.744;6.898;2024-03-02T14:43:34;1.83;;;1.50;;
11865;SDS011;5992;52.744;6.898;2024-03-02T14:46:35;2.53;;;1.37;;
11865;SDS011;5992;52.744;6.898;2024-03-02T14:50:01;2.07;;;1.70;;
11865;SDS011;5992;52.744;6.898;2024-03-02T14:53:14;1.95;;;1.45;;
11865;SDS011;5992;52.744;6.898;2024-03-02T14:56:27;1.90;;;1.70;;
11865;SDS011;5992;52.744;6.898;2024-03-02T14:59:28;3.27;;;1.50;;
11865;SDS011;5992;52.744;6.898;2024-03-02T15:02:41;1.63;;;1.53;;
11865;SDS011;5992;52.744;6.898;2024-03-02T15:05:54;2.47;;;1.50;;
11865;SDS011;5992;52.744;6.898;2024-03-02T15:09:20;1.60;;;1.50;;
11865;SDS011;5992;52.744;6.898;2024-03-02T15:12:21;1.47;;;1.37;;
11865;SDS011;5992;52.744;6.898;2024-03-02T15:15:35;1.55;;;1.45;;
11865;SDS011;5992;52.744;6.898;2024-03-02T15:18:47;2.10;;;1.35;;
11865;SDS011;5992;52.744;6.898;2024-03-02T15:22:02;1.70;;;1.60;;
11865;SDS011;5992;52.744;6.898;2024-03-02T15:25:15;1.80;;;1.60;;
11865;SDS011;5992;52.744;6.898;2024-03-02T15:28:29;3.43;;;1.60;;
11865;SDS011;5992;52.744;6.898;2024-03-02T15:31:30;2.23;;;2.03;;
11865;SDS011;5992;52.744;6.898;2024-03-02T15:34:43;1.63;;;1.53;;
11865;SDS011;5992;52.744;6.898;2024-03-02T15:37:45;1.50;;;1.40;;
11865;SDS011;5992;52.744;6.898;2024-03-02T15:41:13;2.37;;;1.63;;
11865;SDS011;5992;52.744;6.898;2024-03-02T15:44:13;1.53;;;1.40;;
11865;SDS011;5992;52.744;6.898;2024-03-02T15:47:25;1.33;;;1.20;;
11865;SDS011;5992;52.744;6.898;2024-03-02T15:50:37;1.50;;;1.50;;
11865;SDS011;5992;52.744;6.898;2024-03-02T15:53:50;2.23;;;1.50;;
11865;SDS011;5992;52.744;6.898;2024-03-02T15:57:03;1.27;;;1.17;;
11865;SDS011;5992;52.744;6.898;2024-03-02T16:00:16;1.47;;;1.23;;
11865;SDS011;5992;52.744;6.898;2024-03-02T16:03:30;1.23;;;1.10;;
11865;SDS011;5992;52.744;6.898;2024-03-02T16:06:42;2.20;;;1.40;;
11865;SDS011;5992;52.744;6.898;2024-03-02T16:09:56;3.50;;;1.55;;
11865;SDS011;5992;52.744;6.898;2024-03-02T16:13:09;1.37;;;1.27;;
11865;SDS011;5992;52.744;6.898;2024-03-02T16:16:22;1.40;;;1.30;;
11865;SDS011;5992;52.744;6.898;2024-03-02T16:19:23;2.43;;;1.60;;
11865;SDS011;5992;52.744;6.898;2024-03-02T16:22:36;1.80;;;1.50;;
11865;SDS011;5992;52.744;6.898;2024-03-02T16:25:49;1.10;;;1.10;;
11865;SDS011;5992;52.744;6.898;2024-03-02T16:29:15;2.60;;;1.13;;
11865;SDS011;5992;52.744;6.898;2024-03-02T16:32:16;1.60;;;1.50;;
11865;SDS011;5992;52.744;6.898;2024-03-02T16:35:29;1.00;;;1.00;;
11865;SDS011;5992;52.744;6.898;2024-03-02T16:38:31;1.47;;;1.37;;
11865;SDS011;5992;52.744;6.898;2024-03-02T16:41:44;1.57;;;1.17;;
11865;SDS011;5992;52.744;6.898;2024-03-02T16:44:57;3.30;;;1.03;;
11865;SDS011;5992;52.744;6.898;2024-03-02T16:48:10;1.67;;;1.27;;
11865;SDS011;5992;52.744;6.898;2024-03-02T16:51:11;1.13;;;1.13;;
11865;SDS011;5992;52.744;6.898;2024-03-02T16:54:24;1.50;;;1.40;;
11865;SDS011;5992;52.744;6.898;2024-03-02T16:57:26;1.50;;;1.40;;
11865;SDS011;5992;52.744;6.898;2024-03-02T17:00:51;1.37;;;1.30;;
11865;SDS011;5992;52.744;6.898;2024-03-02T17:03:52;1.40;;;1.30;;
11865;SDS011;5992;52.744;6.898;2024-03-02T17:07:06;1.13;;;1.13;;
11865;SDS011;5992;52.744;6.898;2024-03-02T17:10:18;1.40;;;1.30;;
11865;SDS011;5992;52.744;6.898;2024-03-02T17:13:46;0.90;;;0.90;;
11865;SDS011;5992;52.744;6.898;2024-03-02T17:16:58;1.47;;;1.23;;
11865;SDS011;5992;52.744;6.898;2024-03-02T17:20:22;1.00;;;1.00;;
11865;SDS011;5992;52.744;6.898;2024-03-02T17:23:23;1.57;;;1.47;;
11865;SDS011;5992;52.744;6.898;2024-03-02T17:26:37;1.20;;;1.10;;
11865;SDS011;5992;52.744;6.898;2024-03-02T17:29:39;1.00;;;1.00;;
11865;SDS011;5992;52.744;6.898;2024-03-02T17:33:04;1.50;;;1.40;;
11865;SDS011;5992;52.744;6.898;2024-03-02T17:36:05;1.00;;;1.00;;
11865;SDS011;5992;52.744;6.898;2024-03-02T17:39:18;1.47;;;1.37;;
11865;SDS011;5992;52.744;6.898;2024-03-02T17:42:19;0.93;;;0.93;;
11865;SDS011;5992;52.744;6.898;2024-03-02T17:45:34;2.37;;;1.00;;
11865;SDS011;5992;52.744;6.898;2024-03-02T17:48:46;1.10;;;1.10;;
11865;SDS011;5992;52.744;6.898;2024-03-02T17:51:59;0.90;;;0.90;;
11865;SDS011;5992;52.744;6.898;2024-03-02T17:55:11;1.20;;;1.20;;
11865;SDS011;5992;52.744;6.898;2024-03-02T17:58:24;2.17;;;1.30;;
11865;SDS011;5992;52.744;6.898;2024-03-02T18:01:29;1.50;;;1.30;;
11865;SDS011;5992;52.744;6.898;2024-03-02T18:04:54;1.66;;;1.06;;
11865;SDS011;5992;52.744;6.898;2024-03-02T18:07:55;1.10;;;1.10;;
11865;SDS011;5992;52.744;6.898;2024-03-02T18:11:08;1.90;;;1.30;;
11865;SDS011;5992;52.744;6.898;2024-03-02T18:14:09;1.55;;;1.20;;
11865;SDS011;5992;52.744;6.898;2024-03-02T18:17:35;1.00;;;1.00;;
11865;SDS011;5992;52.744;6.898;2024-03-02T18:20:47;2.73;;;1.60;;
11865;SDS011;5992;52.744;6.898;2024-03-02T18:24:01;1.30;;;1.20;;
11865;SDS011;5992;52.744;6.898;2024-03-02T18:27:14;2.10;;;1.30;;
11865;SDS011;5992;52.744;6.898;2024-03-02T18:30:27;3.93;;;1.40;;
11865;SDS011;5992;52.744;6.898;2024-03-02T18:33:31;1.50;;;1.40;;
11865;SDS011;5992;52.744;6.898;2024-03-02T18:36:55;1.53;;;1.43;;
11865;SDS011;5992;52.744;6.898;2024-03-02T18:39:56;2.80;;;1.90;;
11865;SDS011;5992;52.744;6.898;2024-03-02T18:43:09;1.60;;;1.50;;
11865;SDS011;5992;52.744;6.898;2024-03-02T18:46:11;1.70;;;1.60;;
11865;SDS011;5992;52.744;6.898;2024-03-02T18:49:26;2.93;;;1.47;;
11865;SDS011;5992;52.744;6.898;2024-03-02T18:52:38;5.10;;;1.70;;
11865;SDS011;5992;52.744;6.898;2024-03-02T18:55:51;3.85;;;2.15;;
11865;SDS011;5992;52.744;6.898;2024-03-02T18:58:52;1.75;;;1.60;;
11865;SDS011;5992;52.744;6.898;2024-03-02T19:02:16;2.10;;;2.00;;
11865;SDS011;5992;52.744;6.898;2024-03-02T19:05:21;1.57;;;1.47;;
11865;SDS011;5992;52.744;6.898;2024-03-02T19:08:45;1.70;;;1.60;;
11865;SDS011;5992;52.744;6.898;2024-03-02T19:11:46;4.07;;;2.00;;
11865;SDS011;5992;52.744;6.898;2024-03-02T19:15:11;2.00;;;1.80;;
11865;SDS011;5992;52.744;6.898;2024-03-02T19:18:12;2.60;;;2.30;;
11865;SDS011;5992;52.744;6.898;2024-03-02T19:21:27;2.87;;;2.00;;
11865;SDS011;5992;52.744;6.898;2024-03-02T19:24:39;2.73;;;2.47;;
11865;SDS011;5992;52.744;6.898;2024-03-02T19:27:52;4.27;;;2.70;;
11865;SDS011;5992;52.744;6.898;2024-03-02T19:30:53;2.10;;;2.00;;
11865;SDS011;5992;52.744;6.898;2024-03-02T19:34:09;2.03;;;1.90;;
11865;SDS011;5992;52.744;6.898;2024-03-02T19:37:12;2.73;;;2.27;;
11865;SDS011;5992;52.744;6.898;2024-03-02T19:40:37;2.77;;;2.37;;
11865;SDS011;5992;52.744;6.898;2024-03-02T19:43:37;2.63;;;2.37;;
11865;SDS011;5992;52.744;6.898;2024-03-02T19:55:55;2.60;;;2.40;;
11865;SDS011;5992;52.744;6.898;2024-03-02T19:59:08;4.40;;;2.70;;
11865;SDS011;5992;52.744;6.898;2024-03-02T20:02:21;2.50;;;2.30;;
11865;SDS011;5992;52.744;6.898;2024-03-02T20:05:36;2.50;;;2.30;;
11865;SDS011;5992;52.744;6.898;2024-03-02T20:08:36;4.07;;;2.77;;
11865;SDS011;5992;52.744;6.898;2024-03-02T20:12:01;2.90;;;2.60;;
11865;SDS011;5992;52.744;6.898;2024-03-02T20:15:17;2.60;;;2.40;;
11865;SDS011;5992;52.744;6.898;2024-03-02T20:18:30;2.55;;;2.30;;
11865;SDS011;5992;52.744;6.898;2024-03-02T20:21:30;2.53;;;2.33;;
11865;SDS011;5992;52.744;6.898;2024-03-02T20:24:43;2.40;;;2.20;;
11865;SDS011;5992;52.744;6.898;2024-03-02T20:27:56;3.73;;;3.10;;